Tinsley, Kentucky
Current Conditions -  °F | °C
As of 9:15 AM on Saturday 20 Dec 2014 (Local Time) from K1A6 Reporting Station
Overcast Overcast  
Wind Chill: 34°   Ceiling: 3100
Heat Index: 34°   Visibility: 10mi
Dew Point: 32°   Wind: 0mph
Humidity: 91%   Direction: NA
Pressure: 30.24"   Gusts: NA
Location:  36.7417°N, 83.6911°W
Report Text: K1A6 201415Z AUTO 00000KT 10SM OVC031 01/00 A3024 RMK AO2 T00111002
Loading
Personal Weather Stations






























Interactive Weather Map New forecast layout! Learn more

10-Day Weather Forecast

Advertisements
Track Severe Weather on mobile